Terminal Aerodrome Forecast
Issued by NWS Cleveland, OH

Home | Current Version | Previous Version | Text Only | Print | Product List | Glossary Off
Versions: 1 2 3 4 5 6 7 8 9 10 11 12 13 14 15 16 17 18 19 20 21 22

000
FTUS41 KCLE 150300 AAA
TAFMFD
TAF AMD
KMFD 150345Z 1504/1524 24006KT 6SM BR OVC025
     FM150600 21005KT 5SM BR OVC015
      TEMPO 1509/1513 2SM BR OVC008
     FM151700 15006KT 6SM HZ OVC020=

USA.gov is the U.S. government's official web portal to all federal, state and local government web resources and services.